Time;durP1;ratioP1;P1;durP2;ratioP2;P2;SDS_P1;SDS_P2;PMS_P1;PMS_P2;Temp;Humidity;BMP_temperature;BMP_pressure;BME280_temperature;BME280_humidity;BME280_pressure;Samples;Min_cycle;Max_cycle;Signal;HPM_P1;HPM_P2
2023/01/03 00:01:40;;;;;;;0.93;0.37;;;12.80;99.90;;;12.96;58.31;102179.59;4870320;28;96845;-59
2023/01/03 00:04:06;;;;;;;1.07;0.67;;;12.70;99.90;;;12.82;58.05;102175.44;4872127;28;97596;-56
2023/01/03 00:06:36;;;;;;;3.47;0.73;;;12.60;99.90;;;12.70;58.95;102178.34;4872534;28;97518;-51
2023/01/03 00:09:08;;;;;;;1.27;0.43;;;12.50;99.90;;;12.60;59.14;102176.81;4870772;28;97149;-55
2023/01/03 00:14:27;;;;;;;1.23;0.20;;;12.30;99.90;;;12.46;59.82;102178.84;4864777;28;97499;-53
2023/01/03 00:16:56;;;;;;;1.33;0.70;;;12.20;99.90;;;12.46;59.45;102184.16;4865045;28;97862;-57
2023/01/03 00:19:25;;;;;;;0.77;0.47;;;12.20;99.90;;;12.37;60.99;102184.31;4868873;28;97768;-53
2023/01/03 00:21:52;;;;;;;2.47;0.73;;;12.10;99.90;;;12.35;59.96;102175.53;4865883;28;96791;-56
2023/01/03 00:24:18;;;;;;;0.53;0.40;;;12.20;99.90;;;12.30;60.20;102182.69;4867772;28;96829;-51
2023/01/03 00:26:44;;;;;;;2.80;0.50;;;12.10;99.90;;;12.25;60.73;102184.53;4864586;28;103258;-54
2023/01/03 00:29:11;;;;;;;1.20;0.83;;;12.10;99.90;;;12.15;60.09;102195.31;4873117;28;97417;-54
2023/01/03 00:31:38;;;;;;;0.87;0.67;;;12.00;99.90;;;12.06;60.40;102179.59;4876192;28;98120;-51
2023/01/03 00:34:05;;;;;;;0.50;0.40;;;11.80;99.90;;;12.00;60.67;102179.66;4869483;28;97859;-52
2023/01/03 00:36:31;;;;;;;0.80;0.40;;;11.80;99.90;;;11.95;62.27;102178.88;4870704;28;97513;-51
2023/01/03 00:38:57;;;;;;;1.23;0.40;;;11.70;99.90;;;11.91;61.63;102187.78;4871385;28;99073;-52
2023/01/03 00:41:23;;;;;;;11.63;0.70;;;11.70;99.90;;;12.05;64.77;102190.19;4872329;28;99196;-52
2023/01/03 00:43:49;;;;;;;1.00;0.50;;;11.70;99.90;;;12.06;61.26;102190.16;4870464;28;97392;-55
2023/01/03 00:46:18;;;;;;;0.97;0.60;;;11.80;99.90;;;12.08;60.78;102193.66;4873870;28;96888;-53
2023/01/03 00:48:45;;;;;;;0.37;0.37;;;11.90;99.90;;;12.06;61.23;102190.16;4870268;28;97603;-48
2023/01/03 00:51:19;;;;;;;1.30;0.70;;;11.80;99.90;;;12.05;60.12;102191.06;4873890;28;97268;-52
2023/01/03 00:53:47;;;;;;;2.63;0.77;;;11.80;99.90;;;12.00;60.88;102195.53;4873849;28;97951;-50
2023/01/03 00:56:18;;;;;;;0.67;0.67;;;11.70;99.90;;;11.96;62.34;102199.16;4892876;28;98902;-48
2023/01/03 00:58:45;;;;;;;1.07;0.57;;;11.70;99.90;;;11.91;60.24;102193.94;4876516;28;97048;-53
2023/01/03 01:01:18;;;;;;;1.20;0.30;;;11.70;99.90;;;11.92;63.63;102202.75;4881138;28;96806;-50
2023/01/03 01:03:52;;;;;;;0.60;0.40;;;11.60;99.90;;;11.96;63.22;102199.16;4871316;28;97085;-48
2023/01/03 01:06:24;;;;;;;0.93;0.60;;;11.70;99.90;;;12.17;64.39;102204.06;4871979;28;97687;-52
2023/01/03 01:08:53;;;;;;;0.80;0.70;;;11.90;99.90;;;12.20;60.08;102209.31;4876803;28;97312;-49
2023/01/03 01:11:19;;;;;;;0.47;0.43;;;12.00;99.90;;;12.16;59.72;102210.28;4897532;28;97718;-49
2023/01/03 01:13:46;;;;;;;2.53;0.70;;;11.90;99.90;;;12.12;60.10;102211.19;4900265;28;97009;-49
2023/01/03 01:16:16;;;;;;;1.73;0.70;;;11.80;99.90;;;12.03;59.91;102211.38;4896796;28;97195;-48
2023/01/03 01:18:44;;;;;;;1.97;0.80;;;11.70;99.90;;;11.96;60.31;102216.78;4895251;28;97366;-48
2023/01/03 01:21:18;;;;;;;0.30;0.30;;;11.70;99.90;;;11.81;60.50;102223.19;4896381;28;97332;-50
2023/01/03 01:23:45;;;;;;;0.73;0.40;;;11.60;99.90;;;11.73;61.95;102230.34;4895872;28;97228;-49
2023/01/03 01:26:19;;;;;;;0.70;0.40;;;11.40;99.90;;;11.62;61.35;102228.75;4899555;28;98251;-49
2023/01/03 01:28:46;;;;;;;0.90;0.60;;;11.40;99.90;;;11.57;61.63;102232.34;4898611;28;97079;-48
2023/01/03 01:31:17;;;;;;;1.07;0.63;;;11.30;99.90;;;11.51;62.17;102232.44;4897667;28;97192;-50
2023/01/03 01:33:43;;;;;;;0.63;0.40;;;11.30;99.90;;;11.58;65.30;102224.41;4898024;28;97368;-49
2023/01/03 01:36:18;;;;;;;2.67;0.87;;;11.30;99.90;;;11.54;61.24;102227.97;4895560;28;97565;-48
2023/01/03 01:38:46;;;;;;;1.57;0.70;;;11.30;99.90;;;11.94;63.93;102231.81;4894630;28;98003;-49
2023/01/03 01:46:45;;;;;;;1.23;0.80;;;11.90;99.90;;;12.11;60.74;102237.69;4893520;28;96978;-52
2023/01/03 01:49:24;;;;;;;0.63;0.40;;;11.90;99.90;;;12.09;58.59;102247.41;4900326;28;97135;-50
2023/01/03 01:51:50;;;;;;;1.13;0.73;;;11.80;99.90;;;11.98;59.40;102244.94;4907925;28;103865;-51
2023/01/03 01:54:17;;;;;;;0.40;0.40;;;11.70;99.90;;;11.88;59.22;102252.19;4900980;28;97311;-50
2023/01/03 01:56:48;;;;;;;0.70;0.60;;;11.70;99.90;;;11.79;59.05;102260.25;4893313;28;105900;-55
2023/01/03 01:59:15;;;;;;;0.83;0.40;;;11.60;99.90;;;11.68;59.27;102263.91;4901002;28;97066;-50
2023/01/03 02:01:44;;;;;;;2.23;0.70;;;11.50;99.90;;;11.58;59.79;102260.53;4897871;28;97274;-50
2023/01/03 02:04:28;;;;;;;0.70;0.40;;;11.30;99.90;;;11.46;59.96;102261.59;4897137;28;97279;-53
2023/01/03 02:06:55;;;;;;;0.30;0.30;;;11.20;99.90;;;11.33;61.27;102270.56;4894113;28;97141;-53
2023/01/03 02:09:21;;;;;;;0.70;0.50;;;11.00;99.90;;;11.32;62.26;102271.47;4904600;28;97615;-55
2023/01/03 02:15:16;;;;;;;1.27;0.53;;;11.10;99.90;;;11.28;60.26;102277.66;4896647;28;97267;-55
2023/01/03 02:18:15;;;;;;;2.93;0.43;;;11.10;99.90;;;11.25;60.45;102275.06;4896198;28;100049;-51
2023/01/03 02:20:59;;;;;;;0.90;0.80;;;11.10;99.90;;;11.20;60.51;102275.13;4897727;28;98405;-53
2023/01/03 02:23:46;;;;;;;1.00;0.50;;;11.00;99.90;;;11.17;60.62;102279.59;4897874;28;97112;-50
2023/01/03 02:26:42;;;;;;;0.63;0.50;;;11.00;99.90;;;11.08;61.00;102284.97;4891016;28;98181;-56
2023/01/03 02:29:49;;;;;;;0.77;0.30;;;10.90;99.90;;;10.96;60.19;102286.84;4894669;28;101168;-56
2023/01/03 02:32:33;;;;;;;0.47;0.47;;;10.70;99.90;;;10.85;61.42;102287.84;4894538;28;102854;-50
2023/01/03 02:35:38;;;;;;;2.20;0.67;;;10.60;99.90;;;10.75;60.69;102297.66;4893256;28;97412;-56
2023/01/03 02:38:19;;;;;;;0.70;0.40;;;10.50;99.90;;;10.66;61.44;102292.47;4889781;28;97035;-56
2023/01/03 02:41:05;;;;;;;2.60;0.60;;;10.40;99.90;;;10.60;61.08;102297.81;4896978;28;97550;-54
2023/01/03 02:43:46;;;;;;;0.77;0.47;;;10.40;99.90;;;10.52;60.97;102291.72;4897569;28;97470;-52
2023/01/03 02:46:28;;;;;;;3.30;0.80;;;10.30;99.90;;;10.47;61.47;102290.91;4893822;28;97148;-50
2023/01/03 02:49:04;;;;;;;4.27;0.70;;;10.20;99.90;;;10.38;61.54;102292.72;4892806;28;97067;-53
2023/01/03 02:51:46;;;;;;;0.60;0.60;;;10.20;99.90;;;10.31;61.57;102296.31;4894682;28;98060;-54
2023/01/03 02:54:20;;;;;;;1.27;0.50;;;10.10;99.90;;;10.26;62.45;102298.09;4896847;28;100635;-57
2023/01/03 02:57:05;;;;;;;0.60;0.50;;;10.00;99.90;;;10.21;62.09;102284.09;4889785;28;97138;-52
2023/01/03 02:59:53;;;;;;;1.10;0.87;;;10.00;99.90;;;10.17;61.33;102282.34;4909471;28;96660;-53
2023/01/03 03:02:24;;;;;;;1.20;0.50;;;9.90;99.90;;;10.09;61.89;102289.41;4902818;28;102884;-53
2023/01/03 03:04:54;;;;;;;1.17;0.90;;;9.90;99.90;;;10.07;62.14;102285.94;4894365;28;97685;-56
2023/01/03 03:07:33;;;;;;;3.97;0.80;;;9.90;99.90;;;10.05;62.59;102285.06;4895469;28;97071;-54
2023/01/03 03:16:13;;;;;;;1.60;0.50;;;9.70;99.90;;;9.92;62.03;102286.03;4895155;28;97793;-48
2023/01/03 03:19:00;;;;;;;2.13;0.97;;;9.70;99.90;;;9.93;63.65;102291.31;4894055;28;97287;-60
2023/01/03 03:30:03;;;;;;;2.53;0.50;;;9.80;99.90;;;9.93;61.67;102295.69;4897722;28;97068;-53
2023/01/03 03:32:32;;;;;;;0.50;0.30;;;9.70;99.90;;;9.90;62.73;102298.38;4913221;28;97085;-52
2023/01/03 03:35:03;;;;;;;0.33;0.30;;;9.70;99.90;;;9.89;63.07;102300.13;4892241;28;105620;-53
2023/01/03 03:37:31;;;;;;;1.10;0.40;;;9.70;99.90;;;9.86;61.64;102302.78;4896159;28;97275;-56
2023/01/03 03:45:40;;;;;;;0.83;0.40;;;9.60;99.90;;;9.77;62.47;102298.44;4893232;28;97283;-48
2023/01/03 03:48:27;;;;;;;1.87;0.80;;;9.50;99.90;;;9.75;62.22;102296.69;4894840;28;101414;-55
2023/01/03 03:51:07;;;;;;;0.63;0.53;;;9.50;99.90;;;9.74;62.24;102290.56;4896912;28;97209;-53
2023/01/03 03:53:37;;;;;;;2.87;1.00;;;9.50;99.90;;;9.73;61.22;102286.19;4898096;28;97243;-53
2023/01/03 03:56:08;;;;;;;2.57;0.93;;;9.50;99.90;;;9.71;61.38;102282.69;4892031;28;102590;-57
2023/01/03 03:58:45;;;;;;;0.97;0.50;;;9.50;99.90;;;9.71;62.21;102292.34;4895201;28;97095;-52
2023/01/03 04:01:18;;;;;;;1.47;0.70;;;9.50;99.90;;;9.66;61.35;102289.72;4888986;28;97075;-51
2023/01/03 04:03:46;;;;;;;0.90;0.90;;;9.40;99.90;;;9.64;61.25;102291.50;4893736;28;97607;-49
2023/01/03 04:06:40;;;;;;;0.50;0.47;;;9.40;99.90;;;9.63;62.39;102289.75;4904916;28;97311;-54
2023/01/03 04:09:07;;;;;;;0.73;0.40;;;9.40;99.90;;;9.62;61.69;102289.75;4888854;28;102460;-51
2023/01/03 04:11:33;;;;;;;0.73;0.70;;;9.40;99.90;;;9.59;60.89;102300.31;4891413;28;97163;-53
2023/01/03 04:13:59;;;;;;;3.37;0.50;;;9.30;99.90;;;9.57;61.68;102294.19;4892978;28;96986;-52
2023/01/03 04:16:25;;;;;;;0.90;0.67;;;9.30;99.90;;;9.53;60.95;102298.56;4892088;28;106562;-55
2023/01/03 04:18:51;;;;;;;2.07;0.73;;;9.30;99.90;;;9.54;64.41;102290.66;4898514;28;108269;-53
2023/01/03 04:21:16;;;;;;;0.90;0.80;;;9.30;99.90;;;9.53;62.23;102298.56;4893935;28;97170;-50
2023/01/03 04:23:42;;;;;;;1.03;0.63;;;9.30;99.90;;;9.53;61.08;102282.75;4892296;28;113878;-53
2023/01/03 04:26:08;;;;;;;0.50;0.50;;;9.30;99.90;;;9.51;61.47;102295.94;4889426;28;111839;-49
2023/01/03 04:28:34;;;;;;;2.73;0.50;;;9.20;99.90;;;9.48;60.71;102295.09;4890801;28;97479;-56
2023/01/03 04:30:59;;;;;;;1.17;0.73;;;9.20;99.90;;;9.43;60.38;102286.34;4890704;28;97112;-51
2023/01/03 04:33:25;;;;;;;1.50;0.70;;;9.20;99.90;;;9.39;61.23;102292.50;4895193;28;97100;-53
2023/01/03 04:35:51;;;;;;;2.10;0.80;;;9.10;99.90;;;9.37;62.35;102283.72;4883984;28;99434;-56
2023/01/03 04:38:17;;;;;;;1.77;0.80;;;9.10;99.90;;;9.34;61.76;102286.38;4895783;28;108154;-51
2023/01/03 04:40:43;;;;;;;1.30;1.10;;;9.10;99.90;;;9.34;61.70;102289.03;4891298;28;97737;-52
2023/01/03 04:45:54;;;;;;;1.17;0.77;;;9.10;99.90;;;9.33;60.88;102289.91;4896220;28;97142;-54
2023/01/03 04:48:20;;;;;;;1.77;0.77;;;9.10;99.90;;;9.29;61.32;102282.91;4894109;28;97069;-48
2023/01/03 04:50:59;;;;;;;1.27;0.70;;;9.00;99.90;;;9.28;61.79;102286.44;4895797;28;97465;-51
2023/01/03 04:53:26;;;;;;;1.60;0.77;;;9.00;99.90;;;9.29;62.51;102293.44;4886925;28;97154;-53
2023/01/03 04:55:55;;;;;;;1.13;0.70;;;9.00;99.90;;;9.30;61.39;102292.56;4891136;28;97444;-54
2023/01/03 04:58:22;;;;;;;1.70;1.03;;;9.00;99.90;;;9.30;62.11;102292.56;4894425;28;97337;-51
2023/01/03 05:00:47;;;;;;;1.70;0.60;;;9.10;99.90;;;9.31;61.99;102291.69;4896889;28;97426;-53
2023/01/03 05:03:13;;;;;;;0.87;0.77;;;9.10;99.90;;;9.32;62.99;102293.41;4895671;28;97356;-55
2023/01/03 05:05:40;;;;;;;1.70;0.80;;;9.10;99.90;;;9.36;62.73;102295.16;4893487;28;102562;-59
2023/01/03 05:08:10;;;;;;;1.80;0.80;;;9.20;99.90;;;9.39;63.04;102289.88;4891632;28;99725;-50
2023/01/03 05:10:39;;;;;;;4.63;1.33;;;9.20;99.90;;;9.36;62.91;102298.66;4893345;28;96682;-50
2023/01/03 05:13:06;;;;;;;1.00;0.80;;;9.20;99.90;;;9.36;63.88;102292.53;4894786;28;96552;-52
2023/01/03 05:15:36;;;;;;;0.70;0.70;;;9.10;99.90;;;9.40;64.06;102292.53;4891737;28;96761;-53
2023/01/03 05:18:03;;;;;;;1.47;0.80;;;9.20;99.90;;;9.45;64.43;102295.13;4891665;28;97145;-52
2023/01/03 05:26:14;;;;;;;3.67;1.33;;;9.70;99.90;;;9.92;63.69;102286.03;4888278;28;101565;-55
2023/01/03 05:28:44;;;;;;;1.00;0.83;;;9.70;99.90;;;9.92;63.77;102300.09;4891263;28;98906;-57
2023/01/03 05:31:10;;;;;;;1.27;0.97;;;9.70;99.90;;;9.96;63.98;102303.59;4899318;28;101563;-53
2023/01/03 05:33:40;;;;;;;5.30;1.00;;;9.80;99.90;;;10.00;64.01;102290.38;4895608;28;97171;-54
2023/01/03 05:36:07;;;;;;;1.47;1.10;;;9.80;99.90;;;10.04;64.53;102296.50;4901494;28;101375;-54
2023/01/03 05:38:33;;;;;;;2.50;0.93;;;9.90;99.90;;;10.08;64.77;102287.66;4893992;28;97062;-55
2023/01/03 05:40:58;;;;;;;0.73;0.70;;;9.90;99.90;;;10.15;64.21;102284.13;4900064;28;96870;-55
2023/01/03 05:43:24;;;;;;;1.23;0.83;;;10.00;99.90;;;10.19;63.68;102295.50;4887553;28;97603;-54
2023/01/03 05:45:51;;;;;;;4.23;1.20;;;10.00;99.90;;;10.31;67.01;102292.81;4889547;28;97290;-55
2023/01/03 05:48:19;;;;;;;2.37;0.87;;;10.10;99.90;;;10.48;67.87;102297.94;4896926;28;97600;-56
2023/01/03 05:50:46;;;;;;;2.07;0.80;;;10.20;99.90;;;10.54;63.79;102297.84;4892569;28;97368;-56
2023/01/03 05:53:12;;;;;;;1.60;1.17;;;10.30;99.90;;;10.58;63.69;102284.63;4902198;28;96835;-53
2023/01/03 05:55:38;;;;;;;1.23;0.77;;;10.30;99.90;;;10.76;65.31;102291.50;4896761;28;96922;-57
2023/01/03 05:58:06;;;;;;;1.87;1.07;;;10.40;99.90;;;10.90;63.82;102286.94;4886848;28;114916;-50
2023/01/03 06:00:33;;;;;;;1.60;0.83;;;10.50;99.90;;;10.92;62.00;102285.16;4900951;28;97257;-54
2023/01/03 06:02:59;;;;;;;1.07;0.90;;;10.60;99.90;;;10.93;62.56;102289.53;4901821;28;96778;-55
2023/01/03 06:05:24;;;;;;;3.57;1.00;;;10.60;99.90;;;11.01;64.87;102292.97;4897280;28;97445;-52
2023/01/03 06:07:50;;;;;;;0.67;0.63;;;10.60;99.90;;;10.97;60.80;102301.81;4899951;28;96885;-54
2023/01/03 06:10:16;;;;;;;1.50;1.10;;;10.60;99.90;;;10.95;61.40;102303.59;4904986;28;97594;-51
2023/01/03 06:12:42;;;;;;;0.67;0.60;;;10.60;99.90;;;10.86;61.33;102298.44;4899110;28;96890;-53
2023/01/03 06:15:08;;;;;;;5.10;1.03;;;10.50;99.90;;;10.82;61.58;102293.19;4893064;28;104781;-51
2023/01/03 06:20:18;;;;;;;1.90;0.93;;;10.50;99.90;;;10.84;61.40;102297.53;4893927;28;97204;-51
2023/01/03 06:22:44;;;;;;;1.47;0.80;;;10.50;99.90;;;10.76;60.47;102299.41;4894444;28;97404;-53
2023/01/03 06:25:11;;;;;;;1.80;0.80;;;10.40;99.90;;;10.69;61.13;102302.97;4885449;28;113872;-52
2023/01/03 06:27:37;;;;;;;11.27;1.00;;;10.40;99.90;;;10.65;61.93;102299.50;4889896;28;96902;-48
2023/01/03 06:30:04;;;;;;;2.67;1.30;;;10.30;99.90;;;10.68;62.24;102301.25;4894369;28;105419;-55
2023/01/03 06:32:30;;;;;;;0.70;0.67;;;10.30;99.90;;;10.70;61.55;102307.38;4897642;28;97144;-55
2023/01/03 06:34:56;;;;;;;2.03;1.00;;;10.40;99.90;;;10.63;61.25;102303.06;4884322;28;97857;-52
2023/01/03 06:37:21;;;;;;;1.10;1.00;;;10.30;99.90;;;10.56;61.40;102306.63;4900007;28;97242;-55
2023/01/03 06:39:47;;;;;;;0.60;0.50;;;10.20;99.90;;;10.52;62.01;102310.19;4893113;28;105182;-49
2023/01/03 06:53:20;;;;;;;2.13;1.00;;;10.20;99.90;;;10.45;62.82;102313.78;4892282;28;97295;-49
2023/01/03 06:55:46;;;;;;;1.90;1.17;;;10.20;99.90;;;10.49;63.69;102307.59;4911435;28;97660;-51
2023/01/03 06:58:14;;;;;;;4.43;1.03;;;10.20;99.90;;;10.53;64.64;102306.66;4901105;28;96966;-55
2023/01/03 07:00:42;;;;;;;1.17;0.70;;;10.30;99.90;;;10.60;64.24;102309.25;4907286;28;97230;-60
2023/01/03 07:03:08;;;;;;;1.87;0.87;;;10.30;99.90;;;10.62;62.89;102306.59;4894331;28;97190;-51
2023/01/03 07:05:34;;;;;;;1.00;0.60;;;10.30;99.90;;;10.68;63.92;102306.50;4890562;28;112085;-53
2023/01/03 07:07:59;;;;;;;2.77;1.10;;;10.40;99.90;;;10.77;64.81;102311.72;4891333;28;98290;-55
2023/01/03 07:10:25;;;;;;;0.50;0.40;;;10.40;99.90;;;10.89;65.22;102311.59;4895378;28;102059;-55
2023/01/03 07:15:35;;;;;;;4.43;0.83;;;10.60;99.90;;;11.11;64.25;102312.22;4893452;28;98495;-53
2023/01/03 07:18:01;;;;;;;2.93;1.30;;;10.70;99.90;;;11.18;61.76;102318.31;4896351;28;97124;-53
2023/01/03 07:20:27;;;;;;;2.10;0.87;;;10.80;99.90;;;11.21;63.46;102318.28;4895537;28;97414;-55
2023/01/03 07:22:53;;;;;;;5.80;1.20;;;10.80;99.90;;;11.33;62.20;102323.41;4894407;28;97270;-48
2023/01/03 07:25:19;;;;;;;1.20;0.90;;;10.90;99.90;;;11.35;61.97;102326.91;4888143;28;97897;-54
2023/01/03 07:27:55;;;;;;;5.57;0.87;;;11.00;99.90;;;11.33;62.47;102328.69;4889597;28;98818;-55
2023/01/03 07:30:21;;;;;;;0.97;0.70;;;11.00;99.90;;;11.33;61.96;102323.41;4884439;28;97321;-54
2023/01/03 07:32:46;;;;;;;1.87;0.80;;;10.90;99.90;;;11.43;64.16;102325.06;4885155;28;97571;-52
2023/01/03 07:35:12;;;;;;;2.13;0.53;;;11.00;99.90;;;11.41;62.37;102324.16;4884399;28;103528;-54
2023/01/03 07:37:38;;;;;;;0.93;0.80;;;11.00;99.90;;;11.46;61.76;102330.28;4890499;28;104453;-53
2023/01/03 07:40:05;;;;;;;0.60;0.60;;;11.10;99.90;;;11.59;63.36;102331.88;4901304;28;96982;-55
2023/01/03 07:45:15;;;;;;;1.43;0.70;;;11.30;99.90;;;11.74;60.33;102335.22;4887545;28;101371;-49
2023/01/03 07:47:46;;;;;;;0.73;0.40;;;11.40;99.90;;;11.91;64.10;102330.59;4899299;28;97030;-55
2023/01/03 07:50:13;;;;;;;0.70;0.60;;;11.40;99.90;;;12.09;63.42;102332.94;4895204;28;102042;-51
2023/01/03 07:52:38;;;;;;;2.40;1.00;;;11.60;99.90;;;12.07;59.02;102334.75;4897706;28;97272;-51
2023/01/03 07:55:05;;;;;;;2.67;0.47;;;11.70;99.90;;;12.09;62.56;102340.00;4887994;28;96801;-49
2023/01/03 07:57:31;;;;;;;0.37;0.37;;;11.60;99.90;;;12.21;62.52;102338.03;4892586;28;99287;-49
2023/01/03 07:59:56;;;;;;;0.50;0.50;;;11.70;99.90;;;12.37;62.92;102343.09;4886243;28;96948;-48
2023/01/03 08:02:22;;;;;;;0.90;0.57;;;11.80;99.90;;;12.43;59.70;102340.31;4901160;28;97002;-53
2023/01/03 08:04:48;;;;;;;0.70;0.40;;;12.00;99.90;;;12.48;61.12;102341.16;4897460;28;98145;-51
2023/01/03 08:07:14;;;;;;;0.57;0.47;;;12.00;99.90;;;12.49;58.20;102343.75;4897258;28;97307;-53
2023/01/03 08:15:09;;;;;;;0.63;0.43;;;12.20;99.90;;;12.64;60.00;102342.63;4878959;28;102190;-50
2023/01/03 08:17:35;;;;;;;1.20;0.77;;;12.10;99.90;;;12.64;61.03;102347.91;4893469;28;97498;-56
2023/01/03 08:20:00;;;;;;;1.63;0.70;;;12.20;99.90;;;12.63;57.22;102346.19;4882347;28;97218;-54
2023/01/03 08:22:28;;;;;;;0.97;0.67;;;12.20;99.90;;;12.63;60.51;102346.19;4868497;28;103902;-50
2023/01/03 08:24:54;;;;;;;4.33;0.60;;;12.20;99.90;;;12.62;57.86;102348.84;4864968;28;98041;-54
2023/01/03 08:27:19;;;;;;;1.30;0.60;;;12.20;99.90;;;12.55;58.90;102348.06;4868264;28;97619;-55
2023/01/03 08:29:46;;;;;;;1.53;0.90;;;12.10;99.90;;;12.55;58.63;102342.78;4863512;28;97396;-55
2023/01/03 08:32:12;;;;;;;0.40;0.40;;;12.10;99.90;;;12.78;61.45;102340.59;4869428;28;97589;-53
2023/01/03 08:34:42;;;;;;;0.63;0.50;;;12.30;99.90;;;12.77;57.97;102343.28;4865667;28;97655;-50
2023/01/03 08:37:11;;;;;;;3.27;0.60;;;12.40;99.90;;;12.76;59.79;102344.19;4866913;28;100598;-52
2023/01/03 08:39:54;;;;;;;0.50;0.40;;;12.30;99.90;;;12.99;60.87;102344.63;4863585;28;97016;-53
2023/01/03 08:42:22;;;;;;;0.50;0.50;;;12.50;99.90;;;12.98;59.01;102342.00;4866397;28;97138;-56
2023/01/03 08:44:57;;;;;;;0.60;0.50;;;12.60;99.90;;;13.15;59.53;102339.88;4867457;28;101903;-56
2023/01/03 08:47:25;;;;;;;0.90;0.70;;;12.80;99.90;;;13.22;59.65;102341.56;4876572;28;97743;-54
2023/01/03 08:49:51;;;;;;;0.73;0.57;;;12.80;99.90;;;13.16;56.63;102356.66;4876525;28;97798;-56
2023/01/03 08:52:17;;;;;;;0.70;0.60;;;12.80;99.90;;;13.09;58.40;102351.50;4874286;28;97543;-55
2023/01/03 08:54:43;;;;;;;1.70;0.80;;;12.70;99.90;;;13.04;57.35;102348.06;4874326;28;97616;-51
2023/01/03 08:57:08;;;;;;;1.30;0.83;;;12.70;99.90;;;12.98;56.02;102347.28;4878430;28;98879;-54
2023/01/03 08:59:34;;;;;;;0.50;0.40;;;12.60;99.90;;;13.01;56.23;102357.81;4865150;28;109415;-57
2023/01/03 09:02:00;;;;;;;0.60;0.40;;;12.60;99.90;;;12.98;56.97;102352.59;4873759;28;97787;-50
2023/01/03 09:04:26;;;;;;;0.83;0.70;;;12.60;99.90;;;12.93;56.66;102354.47;4874359;28;97381;-54
2023/01/03 09:06:52;;;;;;;0.70;0.50;;;12.60;99.90;;;12.85;57.52;102356.38;4868718;28;98293;-52
2023/01/03 09:09:18;;;;;;;1.63;0.70;;;12.50;99.90;;;13.00;57.01;102358.72;4872885;28;96988;-52
2023/01/03 09:11:44;;;;;;;2.47;0.90;;;12.70;99.90;;;12.88;56.09;102361.63;4869934;28;97010;-48
2023/01/03 09:14:10;;;;;;;1.33;0.80;;;12.60;99.90;;;12.95;59.10;102368.56;4873206;28;97462;-53
2023/01/03 09:16:35;;;;;;;0.77;0.70;;;12.60;99.90;;;12.87;57.25;102362.50;4867371;28;97174;-57
2023/01/03 09:19:01;;;;;;;0.40;0.40;;;12.50;99.90;;;12.85;59.56;102367.84;4873559;28;97913;-53
2023/01/03 09:21:28;;;;;;;0.73;0.47;;;12.50;99.90;;;13.04;60.13;102374.56;4871506;28;98720;-56
2023/01/03 09:23:55;;;;;;;0.10;0.10;;;12.70;99.90;;;13.32;59.92;102363.47;4862191;28;97770;-56
2023/01/03 09:26:21;;;;;;;0.40;0.37;;;13.10;99.90;;;13.69;58.91;102368.84;4871828;28;98240;-56
2023/01/03 09:28:46;;;;;;;0.73;0.43;;;13.60;99.90;;;14.03;55.71;102368.09;4871120;28;97541;-56
2023/01/03 09:31:12;;;;;;;0.40;0.40;;;14.10;99.90;;;14.32;56.16;102365.66;4871000;28;97115;-56
2023/01/03 09:33:38;;;;;;;0.83;0.30;;;14.50;99.90;;;14.64;55.76;102369.31;4866703;28;105525;-55
2023/01/03 09:36:04;;;;;;;0.60;0.50;;;14.80;99.90;;;14.88;55.38;102371.31;4874427;28;97370;-57
2023/01/03 09:38:30;;;;;;;2.47;0.40;;;15.10;99.90;;;14.99;54.76;102374.56;4872412;28;97421;-51
2023/01/03 09:41:07;;;;;;;0.13;0.13;;;15.20;99.90;;;15.17;52.70;102378.50;4869879;28;97016;-55
2023/01/03 09:43:47;;;;;;;1.30;0.33;;;15.40;99.90;;;15.35;51.60;102372.72;4871384;28;98058;-55
2023/01/03 09:46:24;;;;;;;0.33;0.33;;;15.60;99.90;;;15.46;51.02;102369.72;4868273;28;101554;-57
2023/01/03 09:48:52;;;;;;;0.10;0.10;;;15.60;99.90;;;15.60;52.89;102364.91;4865427;28;98164;-57
2023/01/03 10:06:33;;;;;;;0.83;0.40;;;16.10;99.90;;;15.61;50.05;102363.09;4840460;28;102423;-58
2023/01/03 10:09:27;;;;;;;0.57;0.30;;;15.50;99.90;;;15.37;50.69;102375.31;4863665;28;100366;-57
2023/01/03 10:12:37;;;;;;;0.67;0.50;;;15.10;99.90;;;15.16;53.58;102372.31;4861523;28;97135;-56
2023/01/03 10:15:10;;;;;;;0.63;0.60;;;14.80;99.90;;;15.04;53.58;102367.34;4873552;28;98147;-57
2023/01/03 10:18:09;;;;;;;0.37;0.30;;;14.70;99.90;;;14.99;54.51;102368.41;4871759;28;98924;-62
2023/01/03 10:20:47;;;;;;;2.20;0.60;;;14.60;99.90;;;14.98;53.55;102362.22;4865308;28;96867;-58
2023/01/03 10:23:13;;;;;;;1.20;0.70;;;14.70;99.90;;;14.80;52.71;102365.38;4863563;28;98065;-57
2023/01/03 10:25:43;;;;;;;0.90;0.80;;;14.60;99.90;;;14.67;53.82;102369.25;4859476;28;97309;-53
2023/01/03 10:28:17;;;;;;;1.87;1.10;;;14.40;99.90;;;14.66;54.24;102364.84;4877591;28;100401;-53
2023/01/03 10:31:13;;;;;;;3.87;1.07;;;14.40;99.90;;;14.52;53.77;102363.41;4859600;28;98579;-55
2023/01/03 10:33:48;;;;;;;0.67;0.60;;;14.20;99.90;;;14.42;55.08;102361.84;4844309;28;97031;-50
2023/01/03 10:36:16;;;;;;;2.30;0.70;;;14.10;99.90;;;14.45;56.00;102359.16;4870055;28;97668;-56
2023/01/03 10:38:46;;;;;;;0.30;0.27;;;14.20;99.90;;;14.59;55.79;102361.47;4867716;28;98301;-52
2023/01/03 10:41:43;;;;;;;1.07;0.50;;;14.30;99.90;;;14.68;53.29;102363.03;4868483;28;97248;-54
2023/01/03 10:44:25;;;;;;;1.13;0.47;;;14.50;99.90;;;14.67;54.10;102359.50;4867384;28;97746;-49
2023/01/03 10:46:54;;;;;;;0.63;0.30;;;14.50;99.90;;;14.78;54.39;102354.78;4867160;28;96978;-57
2023/01/03 10:49:23;;;;;;;0.33;0.20;;;14.60;99.90;;;14.78;55.05;102353.91;4870093;28;97878;-54
2023/01/03 10:52:15;;;;;;;1.37;0.33;;;14.60;99.90;;;14.91;54.62;102352.66;4869429;28;99495;-58
2023/01/03 10:54:51;;;;;;;0.77;0.47;;;14.70;99.90;;;15.07;54.03;102340.72;4858671;28;97438;-56
2023/01/03 10:57:38;;;;;;;0.67;0.40;;;15.00;99.90;;;15.09;53.48;102333.56;4865207;28;97277;-55
2023/01/03 11:00:37;;;;;;;1.47;0.70;;;15.00;99.90;;;15.00;53.84;102333.81;4864036;28;101542;-53
2023/01/03 11:03:18;;;;;;;1.30;0.60;;;14.90;99.90;;;14.92;52.90;102333.16;4856003;28;101354;-54
2023/01/03 11:06:07;;;;;;;1.10;0.50;;;14.80;99.90;;;14.78;54.17;102324.69;4860936;28;98216;-57
2023/01/03 11:08:46;;;;;;;1.23;0.97;;;14.60;99.90;;;14.73;54.26;102331.88;4868258;28;97472;-54
2023/01/03 11:11:34;;;;;;;0.63;0.63;;;14.60;99.90;;;14.76;53.70;102331.81;4864943;28;102870;-52
2023/01/03 11:14:24;;;;;;;1.53;0.70;;;14.60;99.90;;;14.66;55.28;102323.22;4862821;28;100995;-50
2023/01/03 11:17:03;;;;;;;2.10;0.93;;;14.50;99.90;;;14.76;53.27;102323.84;4876552;28;97101;-50
2023/01/03 11:19:32;;;;;;;0.40;0.40;;;14.60;99.90;;;14.72;53.37;102322.19;4862824;28;97265;-52
2023/01/03 11:22:12;;;;;;;1.27;0.60;;;14.60;99.90;;;14.68;53.14;102325.84;4860295;28;97385;-50
2023/01/03 11:24:59;;;;;;;1.17;0.83;;;14.60;99.90;;;14.61;53.70;102324.22;4859059;28;97330;-50
2023/01/03 11:27:50;;;;;;;0.50;0.30;;;14.50;99.90;;;14.48;52.76;102329.03;4866843;28;97907;-53
2023/01/03 11:30:36;;;;;;;0.50;0.30;;;14.40;99.90;;;14.43;52.11;102323.75;4865539;28;97378;-54
2023/01/03 11:33:17;;;;;;;0.30;0.20;;;14.40;99.90;;;14.43;52.79;102326.41;4868541;28;101848;-51
2023/01/03 11:36:05;;;;;;;0.27;0.10;;;14.30;99.90;;;14.44;51.47;102317.56;4865263;28;97427;-51
2023/01/03 11:38:56;;;;;;;1.50;0.20;;;14.40;99.90;;;14.39;52.17;102314.16;4865235;28;97070;-53
2023/01/03 11:41:32;;;;;;;0.20;0.10;;;14.30;99.90;;;14.36;51.78;102314.22;4873497;28;97806;-51
2023/01/03 11:44:17;;;;;;;0.30;0.10;;;14.30;99.90;;;14.39;55.21;102307.97;4873706;28;96930;-55
2023/01/03 11:47:20;;;;;;;0.30;0.17;;;14.40;99.90;;;14.41;54.86;102309.66;4865559;28;96959;-54
2023/01/03 11:50:05;;;;;;;0.93;0.20;;;14.30;99.90;;;14.41;53.64;102307.00;4863096;28;96855;-51
2023/01/03 11:52:59;;;;;;;0.40;0.20;;;14.40;99.90;;;14.35;52.26;102301.88;4888479;28;97053;-50